Masjed Soleyman, Iran
Current Conditions -  °F | °C
As of 11:00 PM on Wednesday 22 Oct 2014 (Local Time) from OIAI Reporting Station
Clear Clear  
Wind Chill: 64°   Ceiling: Unl
Heat Index: 64°   Visibility: 6mi
Dew Point: 52°   Wind: 2mph
Humidity: 64%   Direction: 190°S
Pressure: 30.03"   Gusts: NA
Location:  31.94°N, 49.31°E
Report Text: OIAI 222000Z 19002KT CAVOK 18/11 Q1017
Loading
Personal Weather Stations






























Interactive Weather Map
Tropical Storm Tracking
New forecast layout! Learn more

10-Day Weather Forecast

Advertisements
Track Severe Weather on mobile